sensor_id;sensor_type;location;lat;lon;timestamp;temperature;humidity
19138;DHT22;68178;52.188;5.598;2023-07-20T00:00:39;17.40;99.90
19138;DHT22;68178;52.188;5.598;2023-07-20T00:03:12;17.40;99.90
19138;DHT22;68178;52.188;5.598;2023-07-20T00:05:42;17.40;99.90
19138;DHT22;68178;52.188;5.598;2023-07-20T00:08:08;17.30;99.90
19138;DHT22;68178;52.188;5.598;2023-07-20T00:10:34;17.20;99.90
19138;DHT22;68178;52.188;5.598;2023-07-20T00:12:59;17.20;99.90
19138;DHT22;68178;52.188;5.598;2023-07-20T00:15:25;17.10;99.90
19138;DHT22;68178;52.188;5.598;2023-07-20T00:17:50;17.10;99.90
19138;DHT22;68178;52.188;5.598;2023-07-20T00:20:17;17.00;99.90
19138;DHT22;68178;52.188;5.598;2023-07-20T00:22:43;16.90;99.90
19138;DHT22;68178;52.188;5.598;2023-07-20T00:25:09;17.00;99.90
19138;DHT22;68178;52.188;5.598;2023-07-20T00:27:37;16.90;99.90
19138;DHT22;68178;52.188;5.598;2023-07-20T00:30:04;16.90;99.90
19138;DHT22;68178;52.188;5.598;2023-07-20T00:32:29;16.90;99.90
19138;DHT22;68178;52.188;5.598;2023-07-20T00:34:55;16.90;99.90
19138;DHT22;68178;52.188;5.598;2023-07-20T00:37:21;16.90;99.90
19138;DHT22;68178;52.188;5.598;2023-07-20T00:39:46;16.80;99.90
19138;DHT22;68178;52.188;5.598;2023-07-20T00:42:12;16.90;99.90
19138;DHT22;68178;52.188;5.598;2023-07-20T00:44:37;16.90;99.90
19138;DHT22;68178;52.188;5.598;2023-07-20T00:47:04;16.80;99.90
19138;DHT22;68178;52.188;5.598;2023-07-20T00:49:30;16.80;99.90
19138;DHT22;68178;52.188;5.598;2023-07-20T00:51:55;16.70;99.90
19138;DHT22;68178;52.188;5.598;2023-07-20T00:54:21;16.70;99.90
19138;DHT22;68178;52.188;5.598;2023-07-20T00:56:47;16.60;99.90
19138;DHT22;68178;52.188;5.598;2023-07-20T00:59:13;16.60;99.90
19138;DHT22;68178;52.188;5.598;2023-07-20T01:01:39;16.60;99.90
19138;DHT22;68178;52.188;5.598;2023-07-20T01:04:05;16.60;99.90
19138;DHT22;68178;52.188;5.598;2023-07-20T01:07:25;16.70;99.90
19138;DHT22;68178;52.188;5.598;2023-07-20T01:09:34;16.60;99.90
19138;DHT22;68178;52.188;5.598;2023-07-20T01:12:07;16.50;99.90
19138;DHT22;68178;52.188;5.598;2023-07-20T01:14:34;16.40;99.90
19138;DHT22;68178;52.188;5.598;2023-07-20T01:17:01;16.40;99.90
19138;DHT22;68178;52.188;5.598;2023-07-20T01:19:27;16.40;99.90
19138;DHT22;68178;52.188;5.598;2023-07-20T01:27:36;16.40;99.90
19138;DHT22;68178;52.188;5.598;2023-07-20T01:32:56;16.40;99.90
19138;DHT22;68178;52.188;5.598;2023-07-20T01:35:25;16.30;99.90
19138;DHT22;68178;52.188;5.598;2023-07-20T01:37:53;16.40;99.90
19138;DHT22;68178;52.188;5.598;2023-07-20T01:40:20;16.30;99.90
19138;DHT22;68178;52.188;5.598;2023-07-20T01:42:47;16.30;99.90
19138;DHT22;68178;52.188;5.598;2023-07-20T01:45:13;16.20;99.90
19138;DHT22;68178;52.188;5.598;2023-07-20T01:47:39;16.20;99.90
19138;DHT22;68178;52.188;5.598;2023-07-20T01:50:05;16.20;99.90
19138;DHT22;68178;52.188;5.598;2023-07-20T01:52:31;16.20;99.90
19138;DHT22;68178;52.188;5.598;2023-07-20T01:54:57;16.10;99.90
19138;DHT22;68178;52.188;5.598;2023-07-20T01:57:22;16.00;99.90
19138;DHT22;68178;52.188;5.598;2023-07-20T01:59:48;15.90;99.90
19138;DHT22;68178;52.188;5.598;2023-07-20T02:02:14;15.90;99.90
19138;DHT22;68178;52.188;5.598;2023-07-20T02:04:39;15.80;99.90
19138;DHT22;68178;52.188;5.598;2023-07-20T02:07:05;15.80;99.90
19138;DHT22;68178;52.188;5.598;2023-07-20T02:09:31;15.80;99.90
19138;DHT22;68178;52.188;5.598;2023-07-20T02:11:56;15.80;99.90
19138;DHT22;68178;52.188;5.598;2023-07-20T02:14:22;15.80;99.90
19138;DHT22;68178;52.188;5.598;2023-07-20T02:16:50;15.80;99.90
19138;DHT22;68178;52.188;5.598;2023-07-20T02:19:24;15.80;99.90
19138;DHT22;68178;52.188;5.598;2023-07-20T02:21:50;15.80;99.90
19138;DHT22;68178;52.188;5.598;2023-07-20T02:24:15;15.90;99.90
19138;DHT22;68178;52.188;5.598;2023-07-20T02:26:41;15.80;99.90
19138;DHT22;68178;52.188;5.598;2023-07-20T02:29:06;15.70;99.90
19138;DHT22;68178;52.188;5.598;2023-07-20T02:31:33;15.70;99.90
19138;DHT22;68178;52.188;5.598;2023-07-20T02:33:59;15.60;99.90
19138;DHT22;68178;52.188;5.598;2023-07-20T02:36:24;15.60;99.90
19138;DHT22;68178;52.188;5.598;2023-07-20T02:38:50;15.50;99.90
19138;DHT22;68178;52.188;5.598;2023-07-20T02:41:15;15.50;99.90
19138;DHT22;68178;52.188;5.598;2023-07-20T02:43:41;15.40;99.90
19138;DHT22;68178;52.188;5.598;2023-07-20T02:46:06;15.40;99.90
19138;DHT22;68178;52.188;5.598;2023-07-20T02:48:32;15.40;99.90
19138;DHT22;68178;52.188;5.598;2023-07-20T02:50:58;15.40;99.90
19138;DHT22;68178;52.188;5.598;2023-07-20T02:53:23;15.60;99.90
19138;DHT22;68178;52.188;5.598;2023-07-20T02:55:49;15.60;99.90
19138;DHT22;68178;52.188;5.598;2023-07-20T02:58:15;15.60;99.90
19138;DHT22;68178;52.188;5.598;2023-07-20T03:00:42;15.60;99.90
19138;DHT22;68178;52.188;5.598;2023-07-20T03:03:08;15.60;99.90
19138;DHT22;68178;52.188;5.598;2023-07-20T03:05:35;15.60;99.90
19138;DHT22;68178;52.188;5.598;2023-07-20T03:08:03;15.60;99.90
19138;DHT22;68178;52.188;5.598;2023-07-20T03:10:31;15.70;99.90
19138;DHT22;68178;52.188;5.598;2023-07-20T03:12:57;15.60;99.90
19138;DHT22;68178;52.188;5.598;2023-07-20T03:15:23;15.60;99.90
19138;DHT22;68178;52.188;5.598;2023-07-20T03:17:48;15.60;99.90
19138;DHT22;68178;52.188;5.598;2023-07-20T03:20:14;15.60;99.90
19138;DHT22;68178;52.188;5.598;2023-07-20T03:22:40;15.60;99.90
19138;DHT22;68178;52.188;5.598;2023-07-20T03:25:05;15.50;99.90
19138;DHT22;68178;52.188;5.598;2023-07-20T03:27:31;15.50;99.90
19138;DHT22;68178;52.188;5.598;2023-07-20T03:29:57;15.50;99.90
19138;DHT22;68178;52.188;5.598;2023-07-20T03:32:22;15.50;99.90
19138;DHT22;68178;52.188;5.598;2023-07-20T03:34:48;15.40;99.90
19138;DHT22;68178;52.188;5.598;2023-07-20T03:37:13;15.40;99.90
19138;DHT22;68178;52.188;5.598;2023-07-20T03:39:39;15.40;99.90
19138;DHT22;68178;52.188;5.598;2023-07-20T03:42:05;15.40;99.90
19138;DHT22;68178;52.188;5.598;2023-07-20T03:44:31;15.40;99.90
19138;DHT22;68178;52.188;5.598;2023-07-20T03:46:57;15.20;99.90
19138;DHT22;68178;52.188;5.598;2023-07-20T03:49:23;15.20;99.90
19138;DHT22;68178;52.188;5.598;2023-07-20T03:51:48;15.10;99.90
19138;DHT22;68178;52.188;5.598;2023-07-20T03:54:14;15.10;99.90
19138;DHT22;68178;52.188;5.598;2023-07-20T03:56:39;15.00;99.90
19138;DHT22;68178;52.188;5.598;2023-07-20T03:59:05;15.10;99.90
19138;DHT22;68178;52.188;5.598;2023-07-20T04:01:31;15.10;99.90
19138;DHT22;68178;52.188;5.598;2023-07-20T04:04:04;15.10;99.90
19138;DHT22;68178;52.188;5.598;2023-07-20T04:06:29;15.20;99.90
19138;DHT22;68178;52.188;5.598;2023-07-20T04:08:55;15.30;99.90
19138;DHT22;68178;52.188;5.598;2023-07-20T04:11:20;15.30;99.90
19138;DHT22;68178;52.188;5.598;2023-07-20T04:13:46;15.30;99.90
19138;DHT22;68178;52.188;5.598;2023-07-20T04:16:11;15.30;99.90
19138;DHT22;68178;52.188;5.598;2023-07-20T04:18:37;15.40;99.90
19138;DHT22;68178;52.188;5.598;2023-07-20T04:21:03;15.40;99.90
19138;DHT22;68178;52.188;5.598;2023-07-20T04:23:28;15.40;99.90
19138;DHT22;68178;52.188;5.598;2023-07-20T04:25:54;15.40;99.90
19138;DHT22;68178;52.188;5.598;2023-07-20T04:28:19;15.50;99.90
19138;DHT22;68178;52.188;5.598;2023-07-20T04:30:48;15.40;99.90
19138;DHT22;68178;52.188;5.598;2023-07-20T04:33:13;15.40;99.90
19138;DHT22;68178;52.188;5.598;2023-07-20T04:35:53;15.40;99.90
19138;DHT22;68178;52.188;5.598;2023-07-20T04:38:20;15.40;99.90
19138;DHT22;68178;52.188;5.598;2023-07-20T04:40:47;15.40;99.90
19138;DHT22;68178;52.188;5.598;2023-07-20T04:43:16;15.50;99.90
19138;DHT22;68178;52.188;5.598;2023-07-20T04:45:42;15.50;99.90
19138;DHT22;68178;52.188;5.598;2023-07-20T04:48:14;15.60;99.90
19138;DHT22;68178;52.188;5.598;2023-07-20T04:50:41;15.60;99.90
19138;DHT22;68178;52.188;5.598;2023-07-20T04:53:09;15.70;99.90
19138;DHT22;68178;52.188;5.598;2023-07-20T04:55:35;15.80;99.90
19138;DHT22;68178;52.188;5.598;2023-07-20T04:58:02;16.00;99.90
19138;DHT22;68178;52.188;5.598;2023-07-20T05:00:29;16.20;99.90
19138;DHT22;68178;52.188;5.598;2023-07-20T05:02:55;16.30;99.90
19138;DHT22;68178;52.188;5.598;2023-07-20T05:05:21;16.40;99.90
19138;DHT22;68178;52.188;5.598;2023-07-20T05:07:47;16.50;99.90
19138;DHT22;68178;52.188;5.598;2023-07-20T05:10:13;16.50;99.90
19138;DHT22;68178;52.188;5.598;2023-07-20T05:12:38;16.50;99.90
19138;DHT22;68178;52.188;5.598;2023-07-20T05:15:04;16.40;99.90
19138;DHT22;68178;52.188;5.598;2023-07-20T05:17:30;16.50;99.90
19138;DHT22;68178;52.188;5.598;2023-07-20T05:19:58;16.50;99.90
19138;DHT22;68178;52.188;5.598;2023-07-20T05:22:24;16.60;99.90
19138;DHT22;68178;52.188;5.598;2023-07-20T05:24:50;16.50;99.90
19138;DHT22;68178;52.188;5.598;2023-07-20T05:27:15;16.60;99.90
19138;DHT22;68178;52.188;5.598;2023-07-20T05:29:45;16.60;99.90
19138;DHT22;68178;52.188;5.598;2023-07-20T05:32:11;16.70;99.90
19138;DHT22;68178;52.188;5.598;2023-07-20T05:34:36;16.70;99.90
19138;DHT22;68178;52.188;5.598;2023-07-20T05:37:02;16.90;99.90
19138;DHT22;68178;52.188;5.598;2023-07-20T05:39:27;16.90;99.90
19138;DHT22;68178;52.188;5.598;2023-07-20T05:41:53;17.00;99.90
19138;DHT22;68178;52.188;5.598;2023-07-20T05:44:19;17.10;99.90
19138;DHT22;68178;52.188;5.598;2023-07-20T05:46:44;17.20;99.90
19138;DHT22;68178;52.188;5.598;2023-07-20T05:49:10;17.20;99.90
19138;DHT22;68178;52.188;5.598;2023-07-20T05:51:35;17.30;99.90
19138;DHT22;68178;52.188;5.598;2023-07-20T05:54:01;17.30;99.90
19138;DHT22;68178;52.188;5.598;2023-07-20T05:56:27;17.40;99.90
19138;DHT22;68178;52.188;5.598;2023-07-20T05:58:52;17.40;99.90
19138;DHT22;68178;52.188;5.598;2023-07-20T06:01:18;17.50;99.90
19138;DHT22;68178;52.188;5.598;2023-07-20T06:03:44;17.60;99.90
19138;DHT22;68178;52.188;5.598;2023-07-20T06:06:10;17.60;99.90
19138;DHT22;68178;52.188;5.598;2023-07-20T06:08:37;17.70;99.90
19138;DHT22;68178;52.188;5.598;2023-07-20T06:11:03;17.80;99.90
19138;DHT22;68178;52.188;5.598;2023-07-20T06:13:28;17.80;99.90
19138;DHT22;68178;52.188;5.598;2023-07-20T06:15:54;18.00;99.90
19138;DHT22;68178;52.188;5.598;2023-07-20T06:18:23;18.10;99.90
19138;DHT22;68178;52.188;5.598;2023-07-20T06:20:50;18.10;99.90
19138;DHT22;68178;52.188;5.598;2023-07-20T06:23:17;18.10;99.90
19138;DHT22;68178;52.188;5.598;2023-07-20T06:25:42;18.10;99.90
19138;DHT22;68178;52.188;5.598;2023-07-20T06:28:08;18.10;99.90
19138;DHT22;68178;52.188;5.598;2023-07-20T06:30:34;18.10;99.90
19138;DHT22;68178;52.188;5.598;2023-07-20T06:33:00;18.10;99.90
19138;DHT22;68178;52.188;5.598;2023-07-20T06:35:25;18.20;99.90
19138;DHT22;68178;52.188;5.598;2023-07-20T06:37:51;18.10;99.90
19138;DHT22;68178;52.188;5.598;2023-07-20T06:40:17;18.10;99.90
19138;DHT22;68178;52.188;5.598;2023-07-20T06:42:43;18.30;99.90
19138;DHT22;68178;52.188;5.598;2023-07-20T06:45:09;18.50;99.90
19138;DHT22;68178;52.188;5.598;2023-07-20T06:47:34;18.70;99.90
19138;DHT22;68178;52.188;5.598;2023-07-20T06:50:00;18.80;99.90
19138;DHT22;68178;52.188;5.598;2023-07-20T06:52:25;18.70;99.90
19138;DHT22;68178;52.188;5.598;2023-07-20T06:54:51;18.80;99.90
19138;DHT22;68178;52.188;5.598;2023-07-20T06:57:17;18.90;99.90
19138;DHT22;68178;52.188;5.598;2023-07-20T06:59:43;19.00;99.90
19138;DHT22;68178;52.188;5.598;2023-07-20T07:02:08;19.20;99.90
19138;DHT22;68178;52.188;5.598;2023-07-20T07:04:34;19.30;99.90
19138;DHT22;68178;52.188;5.598;2023-07-20T07:06:59;19.30;99.90
19138;DHT22;68178;52.188;5.598;2023-07-20T07:09:25;19.40;99.90
19138;DHT22;68178;52.188;5.598;2023-07-20T07:11:51;19.40;99.90
19138;DHT22;68178;52.188;5.598;2023-07-20T07:14:20;19.20;99.90
19138;DHT22;68178;52.188;5.598;2023-07-20T07:16:45;19.00;99.90
19138;DHT22;68178;52.188;5.598;2023-07-20T07:19:11;18.90;99.90
19138;DHT22;68178;52.188;5.598;2023-07-20T07:21:37;18.90;99.90
19138;DHT22;68178;52.188;5.598;2023-07-20T07:24:02;19.00;99.90
19138;DHT22;68178;52.188;5.598;2023-07-20T07:26:29;18.90;99.90
19138;DHT22;68178;52.188;5.598;2023-07-20T07:28:54;18.70;99.90
19138;DHT22;68178;52.188;5.598;2023-07-20T07:31:20;18.70;99.90
19138;DHT22;68178;52.188;5.598;2023-07-20T07:33:46;18.90;99.90
19138;DHT22;68178;52.188;5.598;2023-07-20T07:36:11;19.20;99.90
19138;DHT22;68178;52.188;5.598;2023-07-20T07:38:37;19.50;99.90
19138;DHT22;68178;52.188;5.598;2023-07-20T07:41:03;19.70;99.90
19138;DHT22;68178;52.188;5.598;2023-07-20T07:43:29;19.90;99.90
19138;DHT22;68178;52.188;5.598;2023-07-20T07:45:55;19.90;99.90
19138;DHT22;68178;52.188;5.598;2023-07-20T07:48:21;19.90;99.90
19138;DHT22;68178;52.188;5.598;2023-07-20T07:50:47;20.00;99.90
19138;DHT22;68178;52.188;5.598;2023-07-20T07:53:13;20.20;99.90
19138;DHT22;68178;52.188;5.598;2023-07-20T07:55:39;20.20;99.90
19138;DHT22;68178;52.188;5.598;2023-07-20T07:58:04;20.40;99.90
19138;DHT22;68178;52.188;5.598;2023-07-20T08:00:30;20.50;99.90
19138;DHT22;68178;52.188;5.598;2023-07-20T08:02:55;20.80;99.90
19138;DHT22;68178;52.188;5.598;2023-07-20T08:05:21;21.00;99.90
19138;DHT22;68178;52.188;5.598;2023-07-20T08:07:47;21.00;99.90
19138;DHT22;68178;52.188;5.598;2023-07-20T08:10:13;21.00;99.90
19138;DHT22;68178;52.188;5.598;2023-07-20T08:12:38;21.10;99.90
19138;DHT22;68178;52.188;5.598;2023-07-20T08:15:04;21.10;99.90
19138;DHT22;68178;52.188;5.598;2023-07-20T08:17:30;21.20;99.90
19138;DHT22;68178;52.188;5.598;2023-07-20T08:19:55;21.20;99.90
19138;DHT22;68178;52.188;5.598;2023-07-20T08:22:21;21.00;99.90
19138;DHT22;68178;52.188;5.598;2023-07-20T08:24:46;20.70;99.90
19138;DHT22;68178;52.188;5.598;2023-07-20T08:27:12;20.30;99.90
19138;DHT22;68178;52.188;5.598;2023-07-20T08:29:38;19.90;99.90
19138;DHT22;68178;52.188;5.598;2023-07-20T08:32:05;19.70;99.90
19138;DHT22;68178;52.188;5.598;2023-07-20T08:34:31;20.00;99.90
19138;DHT22;68178;52.188;5.598;2023-07-20T08:36:58;20.20;99.90
19138;DHT22;68178;52.188;5.598;2023-07-20T08:39:24;20.50;99.90
19138;DHT22;68178;52.188;5.598;2023-07-20T08:41:50;20.60;99.90
19138;DHT22;68178;52.188;5.598;2023-07-20T08:44:17;20.80;99.90
19138;DHT22;68178;52.188;5.598;2023-07-20T08:46:43;21.00;99.90
19138;DHT22;68178;52.188;5.598;2023-07-20T08:49:09;21.30;99.90
19138;DHT22;68178;52.188;5.598;2023-07-20T08:51:36;21.40;99.90
19138;DHT22;68178;52.188;5.598;2023-07-20T08:54:02;21.40;99.90
19138;DHT22;68178;52.188;5.598;2023-07-20T08:56:28;21.50;99.90
19138;DHT22;68178;52.188;5.598;2023-07-20T08:58:55;21.50;99.90
19138;DHT22;68178;52.188;5.598;2023-07-20T09:01:22;21.80;99.90
19138;DHT22;68178;52.188;5.598;2023-07-20T09:03:48;22.10;99.90
19138;DHT22;68178;52.188;5.598;2023-07-20T09:06:14;22.20;99.90
19138;DHT22;68178;52.188;5.598;2023-07-20T09:08:40;22.10;99.90
19138;DHT22;68178;52.188;5.598;2023-07-20T09:11:06;22.30;99.90
19138;DHT22;68178;52.188;5.598;2023-07-20T09:13:33;22.30;99.90
19138;DHT22;68178;52.188;5.598;2023-07-20T09:15:59;22.00;99.90
19138;DHT22;68178;52.188;5.598;2023-07-20T09:18:29;22.00;99.90
19138;DHT22;68178;52.188;5.598;2023-07-20T09:21:01;22.00;99.90
19138;DHT22;68178;52.188;5.598;2023-07-20T09:23:35;22.00;99.90
19138;DHT22;68178;52.188;5.598;2023-07-20T09:26:09;21.80;99.90
19138;DHT22;68178;52.188;5.598;2023-07-20T09:28:42;21.80;99.90
19138;DHT22;68178;52.188;5.598;2023-07-20T09:31:21;21.80;99.90
19138;DHT22;68178;52.188;5.598;2023-07-20T09:33:48;21.90;99.90
19138;DHT22;68178;52.188;5.598;2023-07-20T09:36:14;21.90;99.90
19138;DHT22;68178;52.188;5.598;2023-07-20T09:38:41;22.20;99.90
19138;DHT22;68178;52.188;5.598;2023-07-20T09:41:07;22.30;99.90
19138;DHT22;68178;52.188;5.598;2023-07-20T09:43:36;22.50;99.90
19138;DHT22;68178;52.188;5.598;2023-07-20T09:46:02;22.40;99.90
19138;DHT22;68178;52.188;5.598;2023-07-20T09:48:29;22.40;99.90
19138;DHT22;68178;52.188;5.598;2023-07-20T09:50:56;21.90;99.90
19138;DHT22;68178;52.188;5.598;2023-07-20T09:53:24;21.60;99.90
19138;DHT22;68178;52.188;5.598;2023-07-20T09:55:52;21.70;99.90
19138;DHT22;68178;52.188;5.598;2023-07-20T09:58:19;21.90;99.90
19138;DHT22;68178;52.188;5.598;2023-07-20T10:00:45;22.00;99.90
19138;DHT22;68178;52.188;5.598;2023-07-20T10:03:20;22.10;99.90
19138;DHT22;68178;52.188;5.598;2023-07-20T10:05:54;22.20;99.90
19138;DHT22;68178;52.188;5.598;2023-07-20T10:08:24;21.90;99.90
19138;DHT22;68178;52.188;5.598;2023-07-20T10:10:51;22.10;99.90
19138;DHT22;68178;52.188;5.598;2023-07-20T10:13:26;22.20;99.90
19138;DHT22;68178;52.188;5.598;2023-07-20T10:16:00;22.40;99.90
19138;DHT22;68178;52.188;5.598;2023-07-20T10:18:51;22.50;99.90
19138;DHT22;68178;52.188;5.598;2023-07-20T10:21:21;22.60;99.90
19138;DHT22;68178;52.188;5.598;2023-07-20T10:23:49;22.60;99.90
19138;DHT22;68178;52.188;5.598;2023-07-20T10:26:14;22.70;99.90
19138;DHT22;68178;52.188;5.598;2023-07-20T10:28:41;22.60;99.90
19138;DHT22;68178;52.188;5.598;2023-07-20T10:31:12;22.60;99.90
19138;DHT22;68178;52.188;5.598;2023-07-20T10:33:38;22.80;99.90
19138;DHT22;68178;52.188;5.598;2023-07-20T10:36:05;22.90;99.90
19138;DHT22;68178;52.188;5.598;2023-07-20T10:41:39;23.50;99.90
19138;DHT22;68178;52.188;5.598;2023-07-20T10:44:07;23.10;99.90
19138;DHT22;68178;52.188;5.598;2023-07-20T10:49:06;22.40;99.90
19138;DHT22;68178;52.188;5.598;2023-07-20T10:51:49;22.00;99.90
19138;DHT22;68178;52.188;5.598;2023-07-20T10:56:50;21.70;99.90
19138;DHT22;68178;52.188;5.598;2023-07-20T11:01:47;22.10;99.90
19138;DHT22;68178;52.188;5.598;2023-07-20T11:04:17;22.40;99.90
19138;DHT22;68178;52.188;5.598;2023-07-20T11:06:54;22.90;99.90
19138;DHT22;68178;52.188;5.598;2023-07-20T11:09:22;23.40;99.90
19138;DHT22;68178;52.188;5.598;2023-07-20T11:12:16;23.80;99.90
19138;DHT22;68178;52.188;5.598;2023-07-20T11:14:44;24.30;99.90
19138;DHT22;68178;52.188;5.598;2023-07-20T11:17:18;24.70;99.90
19138;DHT22;68178;52.188;5.598;2023-07-20T11:19:48;24.80;99.90
19138;DHT22;68178;52.188;5.598;2023-07-20T11:22:16;24.50;99.90
19138;DHT22;68178;52.188;5.598;2023-07-20T11:24:42;24.70;99.90
19138;DHT22;68178;52.188;5.598;2023-07-20T11:27:08;24.80;99.90
19138;DHT22;68178;52.188;5.598;2023-07-20T11:29:35;24.90;99.90
19138;DHT22;68178;52.188;5.598;2023-07-20T11:32:02;24.60;99.90
19138;DHT22;68178;52.188;5.598;2023-07-20T11:34:30;24.70;99.90
19138;DHT22;68178;52.188;5.598;2023-07-20T11:36:56;24.70;99.90
19138;DHT22;68178;52.188;5.598;2023-07-20T11:39:22;24.50;99.90
19138;DHT22;68178;52.188;5.598;2023-07-20T11:41:50;24.80;99.90
19138;DHT22;68178;52.188;5.598;2023-07-20T11:44:17;25.00;99.90
19138;DHT22;68178;52.188;5.598;2023-07-20T11:46:44;25.40;99.90
19138;DHT22;68178;52.188;5.598;2023-07-20T11:49:10;25.50;99.90
19138;DHT22;68178;52.188;5.598;2023-07-20T11:51:37;25.80;99.90
19138;DHT22;68178;52.188;5.598;2023-07-20T11:54:04;25.70;99.90
19138;DHT22;68178;52.188;5.598;2023-07-20T11:56:30;25.60;99.90
19138;DHT22;68178;52.188;5.598;2023-07-20T11:58:57;25.10;99.90
19138;DHT22;68178;52.188;5.598;2023-07-20T12:01:25;24.80;99.90
19138;DHT22;68178;52.188;5.598;2023-07-20T12:03:55;24.50;99.90
19138;DHT22;68178;52.188;5.598;2023-07-20T12:06:23;24.20;99.90
19138;DHT22;68178;52.188;5.598;2023-07-20T12:08:51;24.10;99.90
19138;DHT22;68178;52.188;5.598;2023-07-20T12:11:38;24.00;99.90
19138;DHT22;68178;52.188;5.598;2023-07-20T12:14:08;23.70;99.90
19138;DHT22;68178;52.188;5.598;2023-07-20T12:16:35;23.70;99.90
19138;DHT22;68178;52.188;5.598;2023-07-20T12:19:09;23.60;99.90
19138;DHT22;68178;52.188;5.598;2023-07-20T12:21:36;23.80;99.90
19138;DHT22;68178;52.188;5.598;2023-07-20T12:24:03;24.20;99.90
19138;DHT22;68178;52.188;5.598;2023-07-20T12:26:30;24.50;99.90
19138;DHT22;68178;52.188;5.598;2023-07-20T12:28:56;24.80;99.90
19138;DHT22;68178;52.188;5.598;2023-07-20T12:31:22;24.80;99.90
19138;DHT22;68178;52.188;5.598;2023-07-20T12:33:50;24.70;99.90
19138;DHT22;68178;52.188;5.598;2023-07-20T12:36:16;24.80;99.90
19138;DHT22;68178;52.188;5.598;2023-07-20T12:38:41;24.90;99.90
19138;DHT22;68178;52.188;5.598;2023-07-20T12:41:10;25.10;99.90
19138;DHT22;68178;52.188;5.598;2023-07-20T12:43:38;24.90;99.90
19138;DHT22;68178;52.188;5.598;2023-07-20T12:46:03;25.10;99.90
19138;DHT22;68178;52.188;5.598;2023-07-20T12:48:29;25.20;99.90
19138;DHT22;68178;52.188;5.598;2023-07-20T12:50:55;25.30;99.90
19138;DHT22;68178;52.188;5.598;2023-07-20T12:53:20;25.10;99.90
19138;DHT22;68178;52.188;5.598;2023-07-20T12:55:46;25.20;99.90
19138;DHT22;68178;52.188;5.598;2023-07-20T12:58:12;25.60;99.90
19138;DHT22;68178;52.188;5.598;2023-07-20T13:00:38;26.00;99.90
19138;DHT22;68178;52.188;5.598;2023-07-20T13:03:04;26.40;99.90
19138;DHT22;68178;52.188;5.598;2023-07-20T13:05:32;26.80;99.60
19138;DHT22;68178;52.188;5.598;2023-07-20T13:07:58;26.80;99.90
19138;DHT22;68178;52.188;5.598;2023-07-20T13:10:24;26.60;99.90
19138;DHT22;68178;52.188;5.598;2023-07-20T13:12:50;25.80;99.90
19138;DHT22;68178;52.188;5.598;2023-07-20T13:15:16;25.10;99.90
19138;DHT22;68178;52.188;5.598;2023-07-20T13:17:42;24.60;99.90
19138;DHT22;68178;52.188;5.598;2023-07-20T13:20:09;24.30;99.90
19138;DHT22;68178;52.188;5.598;2023-07-20T13:22:39;24.30;99.90
19138;DHT22;68178;52.188;5.598;2023-07-20T13:25:06;24.10;99.90
19138;DHT22;68178;52.188;5.598;2023-07-20T13:27:32;24.00;99.90
19138;DHT22;68178;52.188;5.598;2023-07-20T13:29:59;24.00;99.90
19138;DHT22;68178;52.188;5.598;2023-07-20T13:32:26;24.10;99.90
19138;DHT22;68178;52.188;5.598;2023-07-20T13:34:52;24.10;99.90
19138;DHT22;68178;52.188;5.598;2023-07-20T13:37:18;24.00;99.90
19138;DHT22;68178;52.188;5.598;2023-07-20T13:39:43;24.10;99.90
19138;DHT22;68178;52.188;5.598;2023-07-20T13:42:09;24.40;99.90
19138;DHT22;68178;52.188;5.598;2023-07-20T13:44:36;24.70;99.90
19138;DHT22;68178;52.188;5.598;2023-07-20T13:47:03;25.20;99.90
19138;DHT22;68178;52.188;5.598;2023-07-20T13:49:31;25.50;99.90
19138;DHT22;68178;52.188;5.598;2023-07-20T13:51:57;25.90;99.90
19138;DHT22;68178;52.188;5.598;2023-07-20T13:54:24;25.80;99.90
19138;DHT22;68178;52.188;5.598;2023-07-20T13:56:49;25.50;99.90
19138;DHT22;68178;52.188;5.598;2023-07-20T13:59:15;25.10;99.90
19138;DHT22;68178;52.188;5.598;2023-07-20T14:01:41;24.60;98.90
19138;DHT22;68178;52.188;5.598;2023-07-20T14:04:08;24.10;99.90
19138;DHT22;68178;52.188;5.598;2023-07-20T14:06:34;23.80;99.90
19138;DHT22;68178;52.188;5.598;2023-07-20T14:09:00;23.60;99.90
19138;DHT22;68178;52.188;5.598;2023-07-20T14:11:26;23.60;99.90
19138;DHT22;68178;52.188;5.598;2023-07-20T14:13:52;23.40;99.90
19138;DHT22;68178;52.188;5.598;2023-07-20T14:16:22;23.50;99.90
19138;DHT22;68178;52.188;5.598;2023-07-20T14:18:48;23.40;99.90
19138;DHT22;68178;52.188;5.598;2023-07-20T14:21:18;23.40;99.90
19138;DHT22;68178;52.188;5.598;2023-07-20T14:23:48;23.50;99.90
19138;DHT22;68178;52.188;5.598;2023-07-20T14:26:15;23.40;99.90
19138;DHT22;68178;52.188;5.598;2023-07-20T14:28:41;23.40;99.90
19138;DHT22;68178;52.188;5.598;2023-07-20T14:31:06;23.80;99.90
19138;DHT22;68178;52.188;5.598;2023-07-20T14:33:32;24.10;99.90
19138;DHT22;68178;52.188;5.598;2023-07-20T14:35:57;24.30;99.90
19138;DHT22;68178;52.188;5.598;2023-07-20T14:38:23;24.50;99.90
19138;DHT22;68178;52.188;5.598;2023-07-20T14:40:49;24.60;99.90
19138;DHT22;68178;52.188;5.598;2023-07-20T14:43:14;24.40;99.90
19138;DHT22;68178;52.188;5.598;2023-07-20T14:45:43;24.00;99.90
19138;DHT22;68178;52.188;5.598;2023-07-20T14:48:08;23.70;99.90
19138;DHT22;68178;52.188;5.598;2023-07-20T14:50:35;23.60;99.90
19138;DHT22;68178;52.188;5.598;2023-07-20T14:53:00;23.40;99.90
19138;DHT22;68178;52.188;5.598;2023-07-20T14:55:26;23.50;99.90
19138;DHT22;68178;52.188;5.598;2023-07-20T14:57:51;23.30;99.90
19138;DHT22;68178;52.188;5.598;2023-07-20T15:00:17;23.40;99.90
19138;DHT22;68178;52.188;5.598;2023-07-20T15:02:43;23.40;99.90
19138;DHT22;68178;52.188;5.598;2023-07-20T15:05:10;23.30;99.90
19138;DHT22;68178;52.188;5.598;2023-07-20T15:07:36;23.30;99.90
19138;DHT22;68178;52.188;5.598;2023-07-20T15:10:03;23.30;99.90
19138;DHT22;68178;52.188;5.598;2023-07-20T15:12:29;23.40;99.90
19138;DHT22;68178;52.188;5.598;2023-07-20T15:15:08;23.30;99.90
19138;DHT22;68178;52.188;5.598;2023-07-20T15:17:35;23.40;99.90
19138;DHT22;68178;52.188;5.598;2023-07-20T15:20:03;23.40;99.90
19138;DHT22;68178;52.188;5.598;2023-07-20T15:22:33;23.30;99.90
19138;DHT22;68178;52.188;5.598;2023-07-20T15:25:00;23.30;99.90
19138;DHT22;68178;52.188;5.598;2023-07-20T15:27:26;23.30;99.90
19138;DHT22;68178;52.188;5.598;2023-07-20T15:29:51;23.20;99.90
19138;DHT22;68178;52.188;5.598;2023-07-20T15:32:20;23.20;99.90
19138;DHT22;68178;52.188;5.598;2023-07-20T15:34:46;23.10;99.90
19138;DHT22;68178;52.188;5.598;2023-07-20T15:37:12;23.00;99.90
19138;DHT22;68178;52.188;5.598;2023-07-20T15:39:38;23.00;99.90
19138;DHT22;68178;52.188;5.598;2023-07-20T15:42:04;22.90;99.90
19138;DHT22;68178;52.188;5.598;2023-07-20T15:44:30;22.90;99.90
19138;DHT22;68178;52.188;5.598;2023-07-20T15:46:56;22.90;99.90